createdAt,value
2018-05-24T00:00:03.067Z,49.20
2018-05-24T00:02:29.994Z,49.30
2018-05-24T00:04:56.168Z,49.30
2018-05-24T00:07:22.362Z,49.40
2018-05-24T00:09:48.553Z,49.30
2018-05-24T00:12:14.754Z,49.20
2018-05-24T00:14:41.093Z,49.30
2018-05-24T00:17:07.263Z,49.40
2018-05-24T00:19:33.442Z,49.10
2018-05-24T00:21:59.650Z,49.30
2018-05-24T00:24:26.546Z,49.40
2018-05-24T00:26:52.736Z,49.20
2018-05-24T00:29:18.942Z,49.40
2018-05-24T00:31:45.859Z,49.70
2018-05-24T00:34:12.055Z,49.60
2018-05-24T00:36:38.245Z,49.50
2018-05-24T00:39:04.432Z,49.60
2018-05-24T00:41:30.636Z,49.40
2018-05-24T00:43:56.820Z,49.50
2018-05-24T00:46:23.770Z,49.70
2018-05-24T00:48:50.690Z,49.80
2018-05-24T00:51:17.616Z,50.30
2018-05-24T00:53:43.804Z,49.70
2018-05-24T00:56:09.992Z,49.80
2018-05-24T00:58:36.168Z,49.80
2018-05-24T01:01:02.382Z,49.70
2018-05-24T01:03:28.588Z,49.70
2018-05-24T01:05:55.506Z,49.80
2018-05-24T01:08:21.688Z,49.60
2018-05-24T01:10:47.868Z,49.80
2018-05-24T01:13:14.048Z,49.70
2018-05-24T01:15:40.254Z,50.50
2018-05-24T01:18:06.485Z,49.90
2018-05-24T01:20:32.707Z,50.00
2018-05-24T01:22:58.908Z,50.10
2018-05-24T01:25:25.858Z,50.10
2018-05-24T01:27:52.039Z,50.00
2018-05-24T01:30:18.231Z,50.10
2018-05-24T01:32:45.153Z,50.20
2018-05-24T01:35:12.077Z,50.30
2018-05-24T01:37:48.379Z,50.10
2018-05-24T01:40:14.567Z,50.10
2018-05-24T01:42:40.781Z,50.10
2018-05-24T01:45:06.992Z,50.20
2018-05-24T01:47:33.162Z,50.30
2018-05-24T01:49:59.334Z,50.40
2018-05-24T01:52:25.535Z,50.40
2018-05-24T01:54:52.458Z,50.40
2018-05-24T01:57:25.626Z,50.30
2018-05-24T01:59:51.786Z,50.40
2018-05-24T02:02:18.709Z,50.60
2018-05-24T02:04:45.131Z,50.40
2018-05-24T02:07:11.316Z,50.40
2018-05-24T02:09:37.487Z,50.60
2018-05-24T02:12:03.688Z,50.70
2018-05-24T02:14:29.888Z,50.60
2018-05-24T02:16:56.795Z,50.80
2018-05-24T02:19:22.973Z,50.80
2018-05-24T02:21:49.183Z,50.60
2018-05-24T02:24:16.133Z,50.70
2018-05-24T02:26:43.373Z,50.60
2018-05-24T02:29:10.337Z,50.70
2018-05-24T02:31:36.775Z,50.50
2018-05-24T02:34:02.974Z,50.60
2018-05-24T02:36:29.920Z,50.50
2018-05-24T02:38:56.857Z,50.50
2018-05-24T02:41:23.816Z,50.20
2018-05-24T02:43:50.732Z,50.20
2018-05-24T02:46:16.916Z,50.20
2018-05-24T02:48:43.121Z,50.00
2018-05-24T02:51:09.300Z,50.10
2018-05-24T02:53:35.497Z,50.00
2018-05-24T02:56:01.663Z,50.10
2018-05-24T02:58:28.389Z,50.00
2018-05-24T03:00:54.598Z,50.00
2018-05-24T03:03:20.847Z,50.00
2018-05-24T03:05:47.041Z,49.80
2018-05-24T03:08:13.224Z,49.80
2018-05-24T03:10:46.478Z,49.70
2018-05-24T03:13:12.687Z,49.70
2018-05-24T03:15:38.889Z,49.80
2018-05-24T03:18:05.849Z,49.80
2018-05-24T03:20:32.029Z,49.80
2018-05-24T03:22:58.205Z,49.80
2018-05-24T03:25:24.401Z,50.00
2018-05-24T03:27:51.336Z,50.00
2018-05-24T03:30:17.523Z,49.80
2018-05-24T03:32:43.747Z,50.50
2018-05-24T03:35:09.977Z,49.90
2018-05-24T03:37:36.141Z,50.00
2018-05-24T03:40:02.357Z,50.10
2018-05-24T03:42:28.533Z,50.10
2018-05-24T03:44:55.448Z,50.30
2018-05-24T03:47:21.643Z,50.10
2018-05-24T03:49:47.831Z,50.30
2018-05-24T03:52:14.113Z,50.20
2018-05-24T03:54:40.970Z,50.50
2018-05-24T03:57:08.623Z,50.60
2018-05-24T04:02:53.706Z,50.10
2018-05-24T04:05:19.888Z,50.80
2018-05-24T04:07:46.071Z,50.90
2018-05-24T04:10:12.226Z,50.90
2018-05-24T04:12:39.144Z,51.20
2018-05-24T04:15:05.329Z,51.10
2018-05-24T04:17:31.515Z,51.20
2018-05-24T04:19:58.443Z,52.00
2018-05-24T04:22:24.608Z,51.40
2018-05-24T04:24:51.535Z,51.60
2018-05-24T04:27:18.468Z,51.80
2018-05-24T04:29:44.661Z,51.70
2018-05-24T04:32:10.871Z,51.80
2018-05-24T04:34:37.071Z,51.80
2018-05-24T04:37:04.000Z,52.00
2018-05-24T04:39:30.196Z,51.90
2018-05-24T04:41:56.381Z,51.90
2018-05-24T04:44:22.578Z,51.80
2018-05-24T04:46:48.811Z,51.90
2018-05-24T04:49:14.972Z,52.00
2018-05-24T04:51:41.135Z,52.00
2018-05-24T04:54:07.499Z,51.90
2018-05-24T04:56:33.667Z,51.80
2018-05-24T04:58:59.887Z,51.90
2018-05-24T05:01:26.893Z,51.90
2018-05-24T05:03:53.843Z,51.70
2018-05-24T05:06:20.033Z,51.60
2018-05-24T05:08:46.260Z,51.50
2018-05-24T05:11:12.451Z,51.50
2018-05-24T05:13:38.652Z,51.60
2018-05-24T05:16:04.850Z,51.70
2018-05-24T05:18:31.037Z,51.60
2018-05-24T05:20:57.225Z,52.40
2018-05-24T05:23:23.447Z,51.90
2018-05-24T05:25:49.643Z,52.10
2018-05-24T05:28:15.853Z,52.20
2018-05-24T05:30:42.185Z,52.00
2018-05-24T05:33:08.300Z,52.20
2018-05-24T05:35:34.512Z,52.40
2018-05-24T05:38:01.458Z,53.20
2018-05-24T05:40:34.665Z,53.20
2018-05-24T05:43:00.853Z,53.40
2018-05-24T05:45:27.804Z,53.80
2018-05-24T05:47:53.987Z,53.70
2018-05-24T05:50:20.193Z,54.00
2018-05-24T05:52:46.411Z,54.20
2018-05-24T05:55:13.347Z,54.50
2018-05-24T05:57:40.282Z,54.70
2018-05-24T06:00:07.242Z,55.70
2018-05-24T06:02:34.164Z,55.10
2018-05-24T06:05:00.395Z,55.00
2018-05-24T06:07:27.344Z,55.40
2018-05-24T06:09:53.519Z,55.30
2018-05-24T06:12:19.711Z,56.10
2018-05-24T06:14:46.849Z,55.70
2018-05-24T06:17:13.015Z,55.70
2018-05-24T06:19:39.267Z,55.80
2018-05-24T06:22:05.464Z,56.00
2018-05-24T06:24:31.632Z,56.20
2018-05-24T06:26:57.868Z,56.30
2018-05-24T06:29:24.072Z,56.50
2018-05-24T06:31:50.264Z,56.70
2018-05-24T06:34:16.467Z,57.20
2018-05-24T06:36:43.423Z,57.80
2018-05-24T06:39:10.352Z,58.30
2018-05-24T06:41:37.291Z,59.00
2018-05-24T06:44:03.470Z,59.00
2018-05-24T06:46:29.663Z,59.30
2018-05-24T06:48:56.596Z,62.00
2018-05-24T06:51:23.563Z,62.80
2018-05-24T06:53:49.814Z,62.70
2018-05-24T06:56:16.099Z,64.20
2018-05-24T06:58:42.294Z,64.90
2018-05-24T07:01:08.477Z,66.00
2018-05-24T07:03:35.388Z,67.50
2018-05-24T07:06:01.672Z,67.40
2018-05-24T07:08:27.755Z,68.40
2018-05-24T07:10:54.081Z,68.70
2018-05-24T07:13:21.036Z,70.30
2018-05-24T07:15:47.236Z,69.90
2018-05-24T07:18:13.408Z,71.00
2018-05-24T07:20:40.350Z,72.70
2018-05-24T07:23:06.532Z,72.60
2018-05-24T07:25:32.736Z,73.10
2018-05-24T07:27:58.949Z,73.90
2018-05-24T07:30:25.155Z,74.70
2018-05-24T07:32:52.092Z,75.60
2018-05-24T07:35:19.032Z,75.80
2018-05-24T07:37:45.245Z,75.60
2018-05-24T07:40:11.423Z,76.20
2018-05-24T07:42:38.343Z,75.70
2018-05-24T07:45:06.020Z,75.10
2018-05-24T07:47:32.941Z,75.10
2018-05-24T07:49:59.131Z,74.90
2018-05-24T07:52:25.327Z,74.90
2018-05-24T07:54:52.260Z,74.40
2018-05-24T07:57:19.171Z,74.30
2018-05-24T07:59:45.360Z,74.20
2018-05-24T08:02:11.555Z,74.40
2018-05-24T08:04:38.478Z,74.30
2018-05-24T08:07:04.688Z,74.20
2018-05-24T08:09:30.930Z,74.30
2018-05-24T08:11:57.116Z,74.20
2018-05-24T08:14:23.307Z,74.20
2018-05-24T08:16:50.551Z,73.60
2018-05-24T08:19:17.737Z,73.60
2018-05-24T08:21:43.950Z,73.50
2018-05-24T08:24:10.861Z,73.70
2018-05-24T08:26:37.055Z,73.60
2018-05-24T08:29:03.259Z,74.10
2018-05-24T08:31:29.451Z,73.80
2018-05-24T08:33:56.393Z,74.40
2018-05-24T08:36:23.380Z,74.70
2018-05-24T08:38:49.563Z,75.20
2018-05-24T08:41:15.765Z,74.70
2018-05-24T08:43:41.960Z,74.60
2018-05-24T08:46:08.163Z,74.50
2018-05-24T08:48:35.102Z,73.70
2018-05-24T08:51:01.304Z,73.50
2018-05-24T08:53:27.580Z,73.20
2018-05-24T08:55:54.071Z,73.10
2018-05-24T08:58:20.278Z,73.60
2018-05-24T09:00:46.474Z,73.70
2018-05-24T09:03:12.669Z,73.80
2018-05-24T09:05:39.703Z,74.10
2018-05-24T09:08:05.914Z,74.00
2018-05-24T09:10:32.161Z,74.00
2018-05-24T09:12:59.855Z,74.20
2018-05-24T09:15:26.789Z,74.30
2018-05-24T09:17:53.779Z,73.80
2018-05-24T09:20:19.980Z,73.60
2018-05-24T09:22:46.904Z,74.30
2018-05-24T09:25:13.095Z,74.20
2018-05-24T09:27:39.552Z,74.70
2018-05-24T09:30:05.753Z,75.10
2018-05-24T09:32:31.928Z,74.80
2018-05-24T09:34:59.793Z,73.40
2018-05-24T09:37:25.998Z,72.90
2018-05-24T09:39:52.169Z,73.00
2018-05-24T09:42:19.185Z,72.70
2018-05-24T09:44:46.060Z,71.00
2018-05-24T09:47:13.022Z,70.80
2018-05-24T09:49:39.255Z,70.50
2018-05-24T09:52:05.452Z,69.30
2018-05-24T09:54:32.440Z,68.20
2018-05-24T09:56:58.668Z,68.00
2018-05-24T09:59:24.885Z,67.10
2018-05-24T10:01:51.096Z,67.40
2018-05-24T10:04:18.027Z,65.40
2018-05-24T10:06:44.205Z,65.20
2018-05-24T10:09:10.413Z,65.60
2018-05-24T10:11:36.624Z,66.10
2018-05-24T10:14:02.856Z,66.20
2018-05-24T10:16:29.137Z,66.70
2018-05-24T10:18:55.329Z,67.30
2018-05-24T10:21:21.542Z,68.20
2018-05-24T10:23:47.755Z,68.90
2018-05-24T10:26:14.688Z,66.50
2018-05-24T10:28:41.620Z,66.90
2018-05-24T10:31:14.863Z,66.60
2018-05-24T10:33:41.053Z,65.30
2018-05-24T10:36:07.252Z,65.80
2018-05-24T10:38:33.444Z,65.00
2018-05-24T10:40:59.655Z,65.20
2018-05-24T10:43:26.589Z,65.50
2018-05-24T10:45:53.505Z,64.90
2018-05-24T10:48:19.708Z,64.70
2018-05-24T10:50:45.902Z,64.50
2018-05-24T10:53:12.097Z,64.00
2018-05-24T10:55:38.289Z,64.20
2018-05-24T10:58:04.501Z,64.50
2018-05-24T11:00:30.705Z,64.30
2018-05-24T11:02:57.678Z,65.20
2018-05-24T11:05:23.865Z,65.10
2018-05-24T11:07:50.800Z,64.80
2018-05-24T11:10:16.998Z,64.60
2018-05-24T11:12:43.189Z,65.40
2018-05-24T11:15:09.423Z,65.50
2018-05-24T11:17:35.633Z,65.70
2018-05-24T11:20:02.576Z,66.30
2018-05-24T11:22:29.510Z,65.90
2018-05-24T11:24:56.455Z,65.90
2018-05-24T11:27:22.616Z,65.80
2018-05-24T11:29:48.804Z,66.00
2018-05-24T11:32:14.988Z,65.10
2018-05-24T11:34:41.183Z,65.80
2018-05-24T11:37:08.162Z,65.90
2018-05-24T11:39:35.055Z,65.90
2018-05-24T11:42:01.307Z,65.70
2018-05-24T11:44:27.509Z,65.20
2018-05-24T11:46:54.799Z,65.00
2018-05-24T11:49:20.972Z,64.70
2018-05-24T11:51:47.144Z,64.50
2018-05-24T11:54:13.328Z,63.80
2018-05-24T11:56:40.256Z,64.90
2018-05-24T11:59:06.424Z,63.90
2018-05-24T12:01:32.627Z,63.40
2018-05-24T12:03:58.840Z,63.80
2018-05-24T12:06:25.035Z,63.50
2018-05-24T12:08:51.213Z,63.80
2018-05-24T12:11:17.402Z,65.20
2018-05-24T12:13:44.364Z,65.20
2018-05-24T12:16:11.315Z,64.90
2018-05-24T12:18:37.511Z,64.70
2018-05-24T12:21:03.719Z,65.00
2018-05-24T12:23:29.911Z,65.40
2018-05-24T12:25:56.103Z,66.00
2018-05-24T12:28:22.277Z,66.40
2018-05-24T12:30:48.465Z,66.90
2018-05-24T12:33:15.389Z,67.00
2018-05-24T12:35:41.627Z,66.80
2018-05-24T12:38:07.797Z,66.60
2018-05-24T12:40:34.735Z,66.50
2018-05-24T12:43:01.616Z,66.70
2018-05-24T12:45:27.811Z,66.00
2018-05-24T12:47:54.707Z,64.80
2018-05-24T12:50:20.918Z,64.60
2018-05-24T12:52:47.175Z,64.80
2018-05-24T12:55:13.395Z,65.30
2018-05-24T12:57:40.348Z,64.50
2018-05-24T13:00:07.276Z,64.10
2018-05-24T13:02:33.452Z,64.00
2018-05-24T13:04:59.676Z,63.30
2018-05-24T13:07:25.879Z,62.80
2018-05-24T13:09:52.860Z,61.00
2018-05-24T13:12:19.047Z,60.90
2018-05-24T13:14:45.267Z,60.10
2018-05-24T13:17:11.469Z,59.70
2018-05-24T13:19:44.839Z,59.50
2018-05-24T13:22:11.731Z,59.30
2018-05-24T13:24:37.939Z,59.10
2018-05-24T13:27:04.129Z,58.30
2018-05-24T13:29:30.315Z,57.50
2018-05-24T13:31:56.464Z,57.00
2018-05-24T13:34:22.638Z,57.50
2018-05-24T13:36:48.778Z,57.40
2018-05-24T13:39:14.922Z,56.90
2018-05-24T13:41:41.150Z,56.70
2018-05-24T13:44:07.344Z,57.40
2018-05-24T13:46:33.515Z,56.60
2018-05-24T13:48:59.680Z,55.10
2018-05-24T13:51:25.867Z,54.80
2018-05-24T13:53:52.007Z,54.90
2018-05-24T13:56:18.371Z,54.90
2018-05-24T13:58:44.540Z,54.20
2018-05-24T14:01:10.707Z,54.50
2018-05-24T14:03:36.855Z,54.90
2018-05-24T14:06:03.747Z,55.10
2018-05-24T14:08:29.908Z,55.00
2018-05-24T14:10:56.807Z,54.20
2018-05-24T14:13:23.007Z,54.10
2018-05-24T14:15:49.212Z,53.40
2018-05-24T14:18:15.379Z,53.50
2018-05-24T14:20:41.564Z,53.80
2018-05-24T14:23:08.464Z,53.10
2018-05-24T14:25:34.622Z,53.10
2018-05-24T14:28:00.780Z,53.60
2018-05-24T14:30:27.662Z,53.70
2018-05-24T14:32:53.875Z,53.60
2018-05-24T14:35:20.028Z,53.50
2018-05-24T14:37:47.039Z,53.70
2018-05-24T14:40:13.194Z,53.60
2018-05-24T14:42:39.388Z,53.40
2018-05-24T14:45:05.568Z,54.10
2018-05-24T14:47:32.511Z,54.70
2018-05-24T14:49:59.443Z,55.10
2018-05-24T14:52:25.592Z,54.40
2018-05-24T14:54:51.783Z,54.00
2018-05-24T14:57:17.959Z,54.10
2018-05-24T14:59:44.160Z,53.50
2018-05-24T15:02:11.139Z,54.00
2018-05-24T15:04:38.047Z,54.10
2018-05-24T15:07:04.215Z,54.10
2018-05-24T15:09:30.408Z,54.00
2018-05-24T15:11:56.579Z,54.70
2018-05-24T15:14:23.503Z,56.30
2018-05-24T15:16:49.664Z,56.20
2018-05-24T15:19:15.844Z,57.00
2018-05-24T15:21:42.035Z,56.90
2018-05-24T15:24:08.201Z,56.70
2018-05-24T15:26:34.409Z,54.60
2018-05-24T15:29:00.572Z,55.00
2018-05-24T15:31:27.472Z,54.30
2018-05-24T15:33:53.635Z,54.20
2018-05-24T15:36:20.530Z,54.50
2018-05-24T15:38:46.696Z,54.40
2018-05-24T15:41:12.895Z,54.40
2018-05-24T15:43:39.828Z,54.60
2018-05-24T15:46:06.724Z,54.70
2018-05-24T15:48:32.962Z,54.60
2018-05-24T15:50:59.142Z,54.50
2018-05-24T15:53:26.047Z,54.70
2018-05-24T15:55:52.255Z,54.60
2018-05-24T15:58:18.489Z,55.10
2018-05-24T16:00:45.415Z,55.30
2018-05-24T16:03:11.613Z,54.90
2018-05-24T16:05:37.764Z,55.00
2018-05-24T16:08:03.925Z,55.50
2018-05-24T16:10:30.106Z,55.50
2018-05-24T16:12:56.328Z,55.80
2018-05-24T16:15:23.244Z,56.70
2018-05-24T16:17:49.391Z,56.60
2018-05-24T16:20:16.298Z,56.70
2018-05-24T16:22:42.441Z,56.50
2018-05-24T16:25:15.582Z,56.70
2018-05-24T16:27:42.505Z,57.00
2018-05-24T16:30:08.619Z,56.90
2018-05-24T16:32:34.789Z,56.70
2018-05-24T16:35:00.955Z,56.60
2018-05-24T16:37:27.138Z,56.40
2018-05-24T16:39:54.080Z,56.90
2018-05-24T16:42:20.976Z,56.70
2018-05-24T16:44:48.646Z,56.60
2018-05-24T16:47:15.031Z,56.30
2018-05-24T16:49:41.243Z,56.20
2018-05-24T16:52:08.143Z,55.10
2018-05-24T16:54:34.343Z,55.00
2018-05-24T16:57:01.221Z,55.30
2018-05-24T16:59:28.159Z,55.60
2018-05-24T17:01:54.350Z,55.50
2018-05-24T17:04:20.513Z,55.40
2018-05-24T17:06:46.697Z,55.70
2018-05-24T17:09:12.874Z,55.90
2018-05-24T17:11:39.023Z,56.40
2018-05-24T17:14:05.155Z,56.50
2018-05-24T17:16:32.056Z,57.10
2018-05-24T17:18:58.231Z,57.00
2018-05-24T17:21:25.143Z,57.50
2018-05-24T17:23:51.311Z,57.30
2018-05-24T17:26:17.452Z,57.50
2018-05-24T17:28:43.602Z,57.50
2018-05-24T17:31:09.975Z,57.70
2018-05-24T17:33:36.140Z,57.50
2018-05-24T17:36:02.307Z,57.60
2018-05-24T17:38:28.491Z,56.50
2018-05-24T17:40:54.649Z,56.20
2018-05-24T17:43:20.814Z,56.40
2018-05-24T17:45:47.683Z,56.70
2018-05-24T17:48:13.851Z,56.40
2018-05-24T17:50:40.020Z,56.80
2018-05-24T17:53:06.915Z,57.80
2018-05-24T17:55:33.074Z,57.70
2018-05-24T17:57:59.229Z,57.60
2018-05-24T18:00:25.399Z,57.80
2018-05-24T18:02:51.563Z,58.00
2018-05-24T18:05:18.453Z,58.30
2018-05-24T18:07:44.599Z,58.10
2018-05-24T18:10:10.747Z,58.30
2018-05-24T18:12:36.919Z,58.60
2018-05-24T18:15:03.106Z,58.80
2018-05-24T18:17:30.740Z,59.10
2018-05-24T18:19:56.896Z,59.00
2018-05-24T18:22:23.069Z,59.10
2018-05-24T18:24:49.213Z,59.10
2018-05-24T18:27:15.352Z,59.00
2018-05-24T18:29:41.533Z,59.10
2018-05-24T18:32:07.689Z,59.40
2018-05-24T18:34:33.859Z,59.50
2018-05-24T18:37:01.032Z,59.70
2018-05-24T18:39:27.915Z,59.70
2018-05-24T18:41:54.090Z,59.70
2018-05-24T18:44:21.020Z,59.80
2018-05-24T18:46:47.917Z,60.10
2018-05-24T18:49:14.056Z,59.70
2018-05-24T18:51:40.220Z,59.70
2018-05-24T18:54:07.128Z,59.80
2018-05-24T18:56:33.381Z,59.70
2018-05-24T18:58:59.492Z,59.50
2018-05-24T19:01:25.655Z,59.70
2018-05-24T19:03:52.552Z,60.00
2018-05-24T19:06:18.711Z,59.80
2018-05-24T19:08:45.614Z,60.20
2018-05-24T19:11:11.759Z,60.20
2018-05-24T19:13:37.915Z,60.40
2018-05-24T19:16:04.843Z,60.70
2018-05-24T19:18:31.736Z,60.90
2018-05-24T19:20:57.896Z,60.80
2018-05-24T19:23:24.049Z,60.80
2018-05-24T19:25:50.943Z,60.80
2018-05-24T19:28:24.303Z,60.70
2018-05-24T19:30:50.487Z,60.80
2018-05-24T19:33:16.635Z,60.60
2018-05-24T19:35:44.320Z,61.00
2018-05-24T19:38:10.413Z,60.90
2018-05-24T19:40:36.595Z,61.10
2018-05-24T19:43:02.755Z,61.20
2018-05-24T19:45:28.895Z,61.40
2018-05-24T19:47:55.053Z,61.50
2018-05-24T19:50:22.009Z,61.80
2018-05-24T19:52:48.216Z,61.70
2018-05-24T19:55:15.168Z,62.20
2018-05-24T19:57:42.101Z,62.30
2018-05-24T20:00:09.008Z,62.60
2018-05-24T20:02:35.180Z,62.50
2018-05-24T20:05:02.088Z,62.80
2018-05-24T20:07:28.247Z,62.70
2018-05-24T20:09:55.178Z,63.10
2018-05-24T20:12:21.371Z,62.90
2018-05-24T20:14:47.521Z,63.10
2018-05-24T20:17:13.683Z,63.20
2018-05-24T20:19:39.845Z,63.40
2018-05-24T20:22:05.986Z,63.40
2018-05-24T20:24:32.883Z,63.70
2018-05-24T20:26:59.047Z,63.70
2018-05-24T20:29:25.215Z,63.90
2018-05-24T20:31:51.408Z,64.00
2018-05-24T20:34:18.300Z,64.30
2018-05-24T20:36:44.444Z,64.90
2018-05-24T20:39:10.610Z,65.00
2018-05-24T20:41:37.537Z,64.50
2018-05-24T20:44:03.677Z,64.40
2018-05-24T20:46:30.725Z,64.60
2018-05-24T20:48:56.899Z,64.50
2018-05-24T20:51:23.047Z,64.60
2018-05-24T20:53:49.217Z,64.60
2018-05-24T20:56:15.396Z,64.70
2018-05-24T20:58:41.521Z,64.90
2018-05-24T21:01:07.700Z,64.90
2018-05-24T21:03:33.836Z,65.00
2018-05-24T21:05:59.996Z,65.20
2018-05-24T21:08:26.148Z,65.10
2018-05-24T21:10:52.315Z,65.20
2018-05-24T21:13:18.461Z,65.20
2018-05-24T21:15:44.643Z,65.40
2018-05-24T21:18:11.578Z,65.50
2018-05-24T21:20:38.488Z,65.70
2018-05-24T21:23:04.645Z,65.60
2018-05-24T21:25:30.791Z,65.60
2018-05-24T21:27:57.699Z,65.80
2018-05-24T21:30:23.919Z,65.80
2018-05-24T21:32:50.028Z,65.80
2018-05-24T21:35:16.200Z,65.90
2018-05-24T21:37:42.359Z,66.00
2018-05-24T21:40:09.239Z,66.20
2018-05-24T21:42:35.428Z,66.00
2018-05-24T21:45:08.648Z,66.00
2018-05-24T21:47:34.833Z,66.20
2018-05-24T21:50:01.745Z,66.40
2018-05-24T21:52:27.933Z,66.30
2018-05-24T21:54:54.092Z,66.30
2018-05-24T21:57:20.254Z,66.30
2018-05-24T21:59:46.393Z,66.40
2018-05-24T22:02:12.568Z,66.40
2018-05-24T22:04:39.479Z,66.30
2018-05-24T22:07:05.636Z,66.30
2018-05-24T22:09:32.503Z,66.30
2018-05-24T22:11:58.668Z,66.30
2018-05-24T22:14:24.813Z,67.00
2018-05-24T22:16:50.979Z,66.30
2018-05-24T22:19:17.146Z,66.30
2018-05-24T22:21:43.283Z,66.40
2018-05-24T22:24:09.423Z,66.60
2018-05-24T22:26:36.341Z,66.80
2018-05-24T22:29:02.501Z,66.70
2018-05-24T22:31:29.411Z,66.90
2018-05-24T22:33:55.563Z,66.80
2018-05-24T22:36:22.492Z,67.10
2018-05-24T22:38:48.635Z,67.00
2018-05-24T22:41:15.560Z,67.10
2018-05-24T22:43:41.749Z,67.10
2018-05-24T22:46:07.927Z,67.10
2018-05-24T22:48:34.107Z,67.20
2018-05-24T22:51:00.539Z,67.30
2018-05-24T22:53:26.719Z,67.30
2018-05-24T22:55:52.892Z,67.40
2018-05-24T22:58:19.795Z,67.50
2018-05-24T23:00:45.990Z,67.40
2018-05-24T23:03:12.263Z,67.50
2018-05-24T23:05:38.447Z,67.60
2018-05-24T23:08:11.607Z,68.40
2018-05-24T23:10:37.877Z,68.40
2018-05-24T23:13:04.063Z,67.70
2018-05-24T23:15:30.231Z,67.70
2018-05-24T23:17:56.431Z,67.80
2018-05-24T23:20:22.616Z,67.90
2018-05-24T23:22:49.540Z,68.10
2018-05-24T23:25:15.755Z,68.00
2018-05-24T23:27:41.998Z,68.10
2018-05-24T23:30:08.967Z,68.50
2018-05-24T23:32:35.907Z,68.60
2018-05-24T23:35:02.835Z,68.80
2018-05-24T23:37:29.051Z,69.50
2018-05-24T23:39:55.988Z,68.90
2018-05-24T23:42:22.171Z,68.80
2018-05-24T23:44:48.625Z,69.00
2018-05-24T23:47:14.823Z,69.10
2018-05-24T23:49:41.007Z,69.20
2018-05-24T23:52:07.201Z,69.20
2018-05-24T23:54:33.387Z,69.30
2018-05-24T23:56:59.588Z,69.30
2018-05-24T23:59:25.805Z,69.40
